createdAt,value
2023-02-09T00:01:16.561Z,23.33
2023-02-09T00:03:47.580Z,21.17
2023-02-09T00:06:19.727Z,27.43
2023-02-09T00:08:47.522Z,24.93
2023-02-09T00:11:19.637Z,26.83
2023-02-09T00:13:46.471Z,23.00
2023-02-09T00:16:14.570Z,20.93
2023-02-09T00:18:42.426Z,22.53
2023-02-09T00:21:12.060Z,21.60
2023-02-09T00:23:42.110Z,24.37
2023-02-09T00:26:12.304Z,19.60
2023-02-09T00:28:43.427Z,22.10
2023-02-09T00:31:13.752Z,22.40
2023-02-09T00:33:42.151Z,25.20
2023-02-09T00:36:13.250Z,20.30
2023-02-09T00:38:44.271Z,19.80
2023-02-09T00:41:13.428Z,21.60
2023-02-09T00:43:42.071Z,23.10
2023-02-09T00:46:10.528Z,24.80
2023-02-09T00:48:38.570Z,20.47
2023-02-09T00:51:06.659Z,19.30
2023-02-09T00:53:36.798Z,21.33
2023-02-09T00:56:06.746Z,20.33
2023-02-09T00:58:34.576Z,18.77
2023-02-09T01:01:02.365Z,18.33
2023-02-09T01:03:30.183Z,19.33
2023-02-09T01:05:59.711Z,18.70
2023-02-09T01:08:28.871Z,15.73
2023-02-09T01:10:56.689Z,13.97
2023-02-09T01:13:26.167Z,14.10
2023-02-09T01:15:54.004Z,12.30
2023-02-09T01:18:21.760Z,12.03
2023-02-09T01:20:49.741Z,12.43
2023-02-09T01:23:17.589Z,13.00
2023-02-09T01:25:45.902Z,11.33
2023-02-09T01:28:13.809Z,11.63
2023-02-09T01:30:43.421Z,10.27
2023-02-09T01:33:11.397Z,10.67
2023-02-09T01:35:39.179Z,10.90
2023-02-09T01:38:06.950Z,9.83
2023-02-09T01:40:36.456Z,11.50
2023-02-09T01:43:04.598Z,12.50
2023-02-09T01:45:37.622Z,11.23
2023-02-09T01:48:06.871Z,11.83
2023-02-09T01:50:38.438Z,13.07
2023-02-09T01:53:07.426Z,10.07
2023-02-09T01:55:39.107Z,10.13
2023-02-09T01:58:11.465Z,12.87
2023-02-09T02:00:39.426Z,11.93
2023-02-09T02:03:13.487Z,11.03
2023-02-09T02:05:45.043Z,13.87
2023-02-09T02:08:20.689Z,10.80
2023-02-09T02:10:48.495Z,13.30
2023-02-09T02:13:16.486Z,12.27
2023-02-09T02:15:57.236Z,12.00
2023-02-09T02:18:38.301Z,12.40
2023-02-09T02:21:57.995Z,11.80
2023-02-09T02:24:55.644Z,12.70
2023-02-09T02:27:32.100Z,12.87
2023-02-09T02:30:27.910Z,11.63
2023-02-09T02:33:14.165Z,11.87
2023-02-09T02:35:47.110Z,12.57
2023-02-09T02:38:25.427Z,11.90
2023-02-09T02:40:59.055Z,12.57
2023-02-09T02:43:41.296Z,12.73
2023-02-09T02:46:15.449Z,12.80
2023-02-09T02:48:48.868Z,13.10
2023-02-09T02:51:22.626Z,11.53
2023-02-09T02:53:57.026Z,11.43
2023-02-09T02:56:28.970Z,12.60
2023-02-09T02:59:00.440Z,13.17
2023-02-09T03:01:34.102Z,12.03
2023-02-09T03:04:06.121Z,12.80
2023-02-09T03:06:35.091Z,11.77
2023-02-09T03:09:03.704Z,11.37
2023-02-09T03:11:35.770Z,11.70
2023-02-09T03:14:19.786Z,11.13
2023-02-09T03:16:51.481Z,12.73
2023-02-09T03:19:32.238Z,11.87
2023-02-09T03:22:07.208Z,12.90
2023-02-09T03:24:40.398Z,12.50
2023-02-09T03:27:16.636Z,12.83
2023-02-09T03:29:46.557Z,12.03
2023-02-09T03:32:15.839Z,13.43
2023-02-09T03:34:46.423Z,13.27
2023-02-09T03:37:14.279Z,11.60
2023-02-09T03:39:42.470Z,11.70
2023-02-09T03:42:10.288Z,11.10
2023-02-09T03:44:38.079Z,12.00
2023-02-09T03:47:08.249Z,12.00
2023-02-09T03:49:39.170Z,12.80
2023-02-09T03:52:10.380Z,13.43
2023-02-09T03:54:38.486Z,14.43
2023-02-09T03:57:07.388Z,12.93
2023-02-09T03:59:37.562Z,11.83
2023-02-09T04:02:07.448Z,12.40
2023-02-09T04:04:35.683Z,11.17
2023-02-09T04:07:03.797Z,12.53
2023-02-09T04:09:33.091Z,14.07
2023-02-09T04:12:00.906Z,11.80
2023-02-09T04:14:28.818Z,13.17
2023-02-09T04:16:56.664Z,15.13
2023-02-09T04:19:24.589Z,12.47
2023-02-09T04:21:52.384Z,14.03
2023-02-09T04:24:27.306Z,12.80
2023-02-09T04:26:56.686Z,13.33
2023-02-09T04:29:24.471Z,12.47
2023-02-09T04:31:52.438Z,13.30
2023-02-09T04:34:21.179Z,14.50
2023-02-09T04:36:49.064Z,13.30
2023-02-09T04:39:16.913Z,12.60
2023-02-09T04:41:44.685Z,13.93
2023-02-09T04:44:13.801Z,14.37
2023-02-09T04:46:41.654Z,12.37
2023-02-09T04:49:09.514Z,16.73
2023-02-09T04:51:37.793Z,12.83
2023-02-09T04:54:05.742Z,15.50
2023-02-09T04:56:33.788Z,14.67
2023-02-09T04:59:19.314Z,16.00
2023-02-09T05:01:48.608Z,14.37
2023-02-09T05:04:16.506Z,14.03
2023-02-09T05:06:44.328Z,14.73
2023-02-09T05:09:12.196Z,15.97
2023-02-09T05:11:40.080Z,14.50
2023-02-09T05:14:08.851Z,13.63
2023-02-09T05:16:39.041Z,15.53
2023-02-09T05:19:08.429Z,13.20
2023-02-09T05:21:36.289Z,13.33
2023-02-09T05:24:04.161Z,14.67
2023-02-09T05:26:32.571Z,15.00
2023-02-09T05:29:00.391Z,14.93
2023-02-09T05:31:28.538Z,17.20
2023-02-09T05:33:56.364Z,15.00
2023-02-09T05:36:25.698Z,15.20
2023-02-09T05:38:53.476Z,14.33
2023-02-09T05:41:35.290Z,14.60
2023-02-09T05:44:03.227Z,17.77
2023-02-09T05:46:31.179Z,14.27
2023-02-09T05:48:58.969Z,15.30
2023-02-09T05:51:28.171Z,13.77
2023-02-09T05:53:56.360Z,14.63
2023-02-09T05:56:24.148Z,12.97
2023-02-09T05:58:51.940Z,14.90
2023-02-09T06:01:19.762Z,17.10
2023-02-09T06:03:47.719Z,15.83
2023-02-09T06:06:15.637Z,16.97
2023-02-09T06:08:44.920Z,14.10
2023-02-09T06:11:12.655Z,14.40
2023-02-09T06:13:41.038Z,13.97
2023-02-09T06:16:09.788Z,14.03
2023-02-09T06:18:38.126Z,15.80
2023-02-09T06:21:06.690Z,16.97
2023-02-09T06:23:35.386Z,15.13
2023-02-09T06:26:08.643Z,16.80
2023-02-09T06:28:36.667Z,19.53
2023-02-09T06:31:05.438Z,15.73
2023-02-09T06:33:34.417Z,12.83
2023-02-09T06:36:02.399Z,17.80
2023-02-09T06:38:31.824Z,15.73
2023-02-09T06:40:59.590Z,16.03
2023-02-09T06:43:28.948Z,18.13
2023-02-09T06:45:56.859Z,16.70
2023-02-09T06:48:24.742Z,17.27
2023-02-09T06:50:52.733Z,17.57
2023-02-09T06:53:20.598Z,17.17
2023-02-09T06:55:48.459Z,16.53
2023-02-09T06:58:16.287Z,21.00
2023-02-09T07:00:46.290Z,17.53
2023-02-09T07:03:14.370Z,14.90
2023-02-09T07:05:42.256Z,16.47
2023-02-09T07:08:10.825Z,17.97
2023-02-09T07:10:41.097Z,14.60
2023-02-09T07:13:08.992Z,18.30
2023-02-09T07:15:42.089Z,20.47
2023-02-09T07:18:11.349Z,16.30
2023-02-09T07:20:39.153Z,16.40
2023-02-09T07:23:07.658Z,17.33
2023-02-09T07:25:35.634Z,17.80
2023-02-09T07:28:03.560Z,17.60
2023-02-09T07:30:31.360Z,19.90
2023-02-09T07:32:59.161Z,19.57
2023-02-09T07:35:28.495Z,18.70
2023-02-09T07:37:56.330Z,17.53
2023-02-09T07:40:24.309Z,18.93
2023-02-09T07:42:52.249Z,18.73
2023-02-09T07:45:20.163Z,17.43
2023-02-09T07:47:47.957Z,16.30
2023-02-09T07:50:15.926Z,18.63
2023-02-09T07:52:45.154Z,16.93
2023-02-09T07:55:12.909Z,17.27
2023-02-09T07:57:41.534Z,17.83
2023-02-09T08:00:10.804Z,19.80
2023-02-09T08:02:42.993Z,15.57
2023-02-09T08:05:15.351Z,18.77
2023-02-09T08:07:43.296Z,18.83
2023-02-09T08:10:12.746Z,17.43
2023-02-09T08:12:58.695Z,16.97
2023-02-09T08:15:29.565Z,18.00
2023-02-09T08:18:01.124Z,17.00
2023-02-09T08:20:31.824Z,18.07
2023-02-09T08:23:06.922Z,17.97
2023-02-09T08:25:37.639Z,16.13
2023-02-09T08:28:06.590Z,17.80
2023-02-09T08:30:35.622Z,15.50
2023-02-09T08:33:03.716Z,18.43
2023-02-09T08:35:31.600Z,14.77
2023-02-09T08:38:03.460Z,15.93
2023-02-09T08:40:32.061Z,16.43
2023-02-09T08:43:01.295Z,16.90
2023-02-09T08:45:29.449Z,16.87
2023-02-09T08:47:57.349Z,17.93
2023-02-09T08:50:25.160Z,15.67
2023-02-09T08:52:53.082Z,18.23
2023-02-09T08:55:20.971Z,15.63
2023-02-09T08:57:48.757Z,18.47
2023-02-09T09:00:19.152Z,16.87
2023-02-09T09:02:47.004Z,16.33
2023-02-09T09:05:15.270Z,17.63
2023-02-09T09:07:43.284Z,18.30
2023-02-09T09:10:12.708Z,16.37
2023-02-09T09:12:40.635Z,15.13
2023-02-09T09:15:09.115Z,18.37
2023-02-09T09:17:38.385Z,18.27
2023-02-09T09:20:07.068Z,15.83
2023-02-09T09:22:35.038Z,16.90
2023-02-09T09:25:02.966Z,17.00
2023-02-09T09:27:32.659Z,16.97
2023-02-09T09:30:00.510Z,17.50
2023-02-09T09:32:28.571Z,19.60
2023-02-09T09:35:00.035Z,17.77
2023-02-09T09:37:28.318Z,17.63
2023-02-09T09:39:56.200Z,17.60
2023-02-09T09:42:28.740Z,17.33
2023-02-09T09:44:56.895Z,18.60
2023-02-09T09:47:33.885Z,18.27
2023-02-09T09:50:03.319Z,18.07
2023-02-09T09:52:33.231Z,15.33
2023-02-09T09:55:02.404Z,14.90
2023-02-09T09:57:31.476Z,16.57
2023-02-09T09:59:59.452Z,15.37
2023-02-09T10:02:31.052Z,13.53
2023-02-09T10:05:11.596Z,17.60
2023-02-09T10:07:42.589Z,15.03
2023-02-09T10:10:16.805Z,15.57
2023-02-09T10:12:49.637Z,14.90
2023-02-09T10:15:19.813Z,12.80
2023-02-09T10:17:47.607Z,12.33
2023-02-09T10:20:16.753Z,13.47
2023-02-09T10:22:45.587Z,14.60
2023-02-09T10:25:39.173Z,12.67
2023-02-09T10:28:07.323Z,15.23
2023-02-09T10:30:35.262Z,11.87
2023-02-09T10:33:03.750Z,15.83
2023-02-09T10:35:43.222Z,13.90
2023-02-09T10:38:17.107Z,12.57
2023-02-09T10:40:47.470Z,13.37
2023-02-09T10:43:24.983Z,13.43
2023-02-09T10:45:56.017Z,14.97
2023-02-09T10:48:25.828Z,14.70
2023-02-09T10:50:58.349Z,15.23
2023-02-09T10:53:28.266Z,14.73
2023-02-09T10:56:05.998Z,12.23
2023-02-09T10:58:35.900Z,13.90
2023-02-09T11:01:18.139Z,15.13
2023-02-09T11:04:00.163Z,14.87
2023-02-09T11:06:34.605Z,15.03
2023-02-09T11:09:07.787Z,12.83
2023-02-09T11:11:38.550Z,13.20
2023-02-09T11:14:13.027Z,14.70
2023-02-09T11:17:10.968Z,13.43
2023-02-09T11:20:07.426Z,13.23
2023-02-09T11:23:05.648Z,13.57
2023-02-09T11:25:37.353Z,12.07
2023-02-09T11:28:36.962Z,14.13
2023-02-09T11:31:25.644Z,13.07
2023-02-09T11:34:01.180Z,15.50
2023-02-09T11:36:41.769Z,10.80
2023-02-09T11:39:18.129Z,11.13
2023-02-09T11:42:08.267Z,12.60
2023-02-09T11:44:42.415Z,11.90
2023-02-09T11:47:15.697Z,11.80
2023-02-09T11:49:46.648Z,10.30
2023-02-09T11:52:19.005Z,11.20
2023-02-09T11:54:53.808Z,11.57
2023-02-09T11:57:31.565Z,11.50
2023-02-09T12:00:02.169Z,12.07
2023-02-09T12:02:43.034Z,14.43
2023-02-09T12:05:14.672Z,10.43
2023-02-09T12:07:49.097Z,12.20
2023-02-09T12:10:28.802Z,11.47
2023-02-09T12:13:03.571Z,11.90
2023-02-09T12:15:40.616Z,11.87
2023-02-09T12:18:13.169Z,10.88
2023-02-09T12:20:52.402Z,10.98
2023-02-09T12:23:28.277Z,11.48
2023-02-09T12:25:59.960Z,11.32
2023-02-09T12:28:44.921Z,10.73
2023-02-09T12:31:28.216Z,11.03
2023-02-09T12:34:23.429Z,10.20
2023-02-09T12:37:16.910Z,10.90
2023-02-09T12:40:22.484Z,10.70
2023-02-09T12:43:30.008Z,11.60
2023-02-09T12:46:26.341Z,10.30
2023-02-09T12:49:07.491Z,10.05
2023-02-09T12:52:13.670Z,11.30
2023-02-09T12:54:44.659Z,11.77
2023-02-09T12:57:52.107Z,9.48
2023-02-09T13:00:34.367Z,11.60
2023-02-09T13:03:17.953Z,10.57
2023-02-09T13:05:49.795Z,11.27
2023-02-09T13:08:25.098Z,11.68
2023-02-09T13:10:58.538Z,10.32
2023-02-09T13:13:35.413Z,9.52
2023-02-09T13:16:34.134Z,10.15
2023-02-09T13:19:07.754Z,10.75
2023-02-09T13:21:48.162Z,11.93
2023-02-09T13:24:17.955Z,8.57
2023-02-09T13:26:54.342Z,10.63
2023-02-09T13:29:24.029Z,11.02
2023-02-09T13:32:02.950Z,9.80
2023-02-09T13:34:36.486Z,7.68
2023-02-09T13:37:19.250Z,10.60
2023-02-09T13:39:54.947Z,9.32
2023-02-09T13:42:24.945Z,9.05
2023-02-09T13:44:54.438Z,8.90
2023-02-09T13:47:23.376Z,10.70
2023-02-09T13:50:00.158Z,9.77
2023-02-09T13:52:35.286Z,8.95
2023-02-09T13:55:12.836Z,9.07
2023-02-09T13:57:43.088Z,11.20
2023-02-09T14:00:22.753Z,10.00
2023-02-09T14:02:53.856Z,11.70
2023-02-09T14:05:30.390Z,12.03
2023-02-09T14:08:00.720Z,11.37
2023-02-09T14:10:29.943Z,9.70
2023-02-09T14:13:02.921Z,11.00
2023-02-09T14:15:55.664Z,13.43
2023-02-09T14:18:33.273Z,12.10
2023-02-09T14:21:26.820Z,12.17
2023-02-09T14:24:17.551Z,11.82
2023-02-09T14:26:50.069Z,12.35
2023-02-09T14:29:21.971Z,11.63
2023-02-09T14:31:51.713Z,11.88
2023-02-09T14:34:25.844Z,10.03
2023-02-09T14:36:54.895Z,12.57
2023-02-09T14:39:24.449Z,12.87
2023-02-09T14:42:01.155Z,14.37
2023-02-09T14:44:30.331Z,12.17
2023-02-09T14:46:59.704Z,12.20
2023-02-09T14:49:28.896Z,11.70
2023-02-09T14:52:04.646Z,13.27
2023-02-09T14:54:38.252Z,13.30
2023-02-09T14:57:06.064Z,11.80
2023-02-09T14:59:33.822Z,10.97
2023-02-09T15:02:01.626Z,13.23
2023-02-09T15:04:29.386Z,13.17
2023-02-09T15:07:02.994Z,11.13
2023-02-09T15:09:36.138Z,10.43
2023-02-09T15:12:07.682Z,12.17
2023-02-09T15:14:41.459Z,11.67
2023-02-09T15:17:18.121Z,11.03
2023-02-09T15:19:46.641Z,12.07
2023-02-09T15:22:16.161Z,11.53
2023-02-09T15:24:46.828Z,11.40
2023-02-09T15:27:19.566Z,11.90
2023-02-09T15:29:47.372Z,10.97
2023-02-09T15:32:16.358Z,12.03
2023-02-09T15:35:03.361Z,10.77
2023-02-09T15:37:36.694Z,12.43
2023-02-09T15:40:40.590Z,10.83
2023-02-09T15:43:34.443Z,12.27
2023-02-09T15:46:19.625Z,10.93
2023-02-09T15:48:47.471Z,13.27
2023-02-09T15:51:16.239Z,13.13
2023-02-09T15:53:44.993Z,11.33
2023-02-09T15:56:15.808Z,13.40
2023-02-09T15:58:46.330Z,10.90
2023-02-09T16:01:16.656Z,13.27
2023-02-09T16:03:45.407Z,14.77
2023-02-09T16:06:16.856Z,13.53
2023-02-09T16:08:45.872Z,13.70
2023-02-09T16:11:20.642Z,13.40
2023-02-09T16:13:48.794Z,12.57
2023-02-09T16:16:17.887Z,13.57
2023-02-09T16:18:46.451Z,13.83
2023-02-09T16:21:20.934Z,12.20
2023-02-09T16:23:49.003Z,16.10
2023-02-09T16:26:19.274Z,13.57
2023-02-09T16:28:48.115Z,12.53
2023-02-09T16:31:15.873Z,12.93
2023-02-09T16:33:43.714Z,15.87
2023-02-09T16:36:16.749Z,13.53
2023-02-09T16:38:45.380Z,14.93
2023-02-09T16:41:35.257Z,14.87
2023-02-09T16:44:13.452Z,17.03
2023-02-09T16:46:42.352Z,17.23
2023-02-09T16:49:26.828Z,13.63
2023-02-09T16:51:57.242Z,13.13
2023-02-09T16:54:25.040Z,14.90
2023-02-09T16:56:54.485Z,14.80
2023-02-09T16:59:24.000Z,17.90
2023-02-09T17:01:51.910Z,13.87
2023-02-09T17:04:20.012Z,13.53
2023-02-09T17:06:50.482Z,15.67
2023-02-09T17:09:18.273Z,13.80
2023-02-09T17:11:46.226Z,15.27
2023-02-09T17:14:14.267Z,13.40
2023-02-09T17:16:49.402Z,15.57
2023-02-09T17:19:20.172Z,13.80
2023-02-09T17:21:48.030Z,19.10
2023-02-09T17:24:17.488Z,15.60
2023-02-09T17:26:45.555Z,20.50
2023-02-09T17:29:13.372Z,22.53
2023-02-09T17:31:53.206Z,21.93
2023-02-09T17:34:26.901Z,21.33
2023-02-09T17:36:54.910Z,23.07
2023-02-09T17:39:22.678Z,21.63
2023-02-09T17:41:50.643Z,20.90
2023-02-09T17:44:28.876Z,20.53
2023-02-09T17:47:04.375Z,21.07
2023-02-09T17:49:33.183Z,22.37
2023-02-09T17:52:01.165Z,21.63
2023-02-09T17:54:29.756Z,18.23
2023-02-09T17:56:57.542Z,18.80
2023-02-09T17:59:25.394Z,17.80
2023-02-09T18:01:55.196Z,17.23
2023-02-09T18:04:27.064Z,18.53
2023-02-09T18:06:57.500Z,17.33
2023-02-09T18:09:25.559Z,18.07
2023-02-09T18:11:59.737Z,17.40
2023-02-09T18:14:28.996Z,19.83
2023-02-09T18:16:57.060Z,19.83
2023-02-09T18:19:26.804Z,17.97
2023-02-09T18:21:57.635Z,16.60
2023-02-09T18:24:28.186Z,18.67
2023-02-09T18:26:57.084Z,18.07
2023-02-09T18:29:29.159Z,16.10
2023-02-09T18:31:57.471Z,18.30
2023-02-09T18:34:26.731Z,16.70
2023-02-09T18:36:54.742Z,19.93
2023-02-09T18:39:22.645Z,18.37
2023-02-09T18:41:54.451Z,17.03
2023-02-09T18:44:24.524Z,20.53
2023-02-09T18:46:52.416Z,23.90
2023-02-09T18:49:20.216Z,19.10
2023-02-09T18:51:49.707Z,21.27
2023-02-09T18:54:17.503Z,21.13
2023-02-09T18:56:45.542Z,20.13
2023-02-09T18:59:13.507Z,20.63
2023-02-09T19:01:41.528Z,21.00
2023-02-09T19:04:09.422Z,22.63
2023-02-09T19:06:37.945Z,19.17
2023-02-09T19:09:07.139Z,18.97
2023-02-09T19:11:35.121Z,20.27
2023-02-09T19:14:20.367Z,19.03
2023-02-09T19:16:48.191Z,20.57
2023-02-09T19:19:16.258Z,21.13
2023-02-09T19:21:44.238Z,18.63
2023-02-09T19:24:13.613Z,17.03
2023-02-09T19:26:41.497Z,16.77
2023-02-09T19:29:09.408Z,20.17
2023-02-09T19:31:37.689Z,20.67
2023-02-09T19:34:05.678Z,21.07
2023-02-09T19:36:33.943Z,21.07
2023-02-09T19:39:02.523Z,24.03
2023-02-09T19:41:32.246Z,20.20
2023-02-09T19:44:00.168Z,20.33
2023-02-09T19:46:28.186Z,21.03
2023-02-09T19:48:56.148Z,21.50
2023-02-09T19:51:24.450Z,21.57
2023-02-09T19:53:52.433Z,20.37
2023-02-09T19:56:23.295Z,22.77
2023-02-09T19:58:53.016Z,23.07
2023-02-09T20:01:22.248Z,21.90
2023-02-09T20:03:52.202Z,23.97
2023-02-09T20:06:20.083Z,25.73
2023-02-09T20:08:48.098Z,23.93
2023-02-09T20:11:18.492Z,24.03
2023-02-09T20:13:46.807Z,27.80
2023-02-09T20:16:20.204Z,24.40
2023-02-09T20:18:48.925Z,25.10
2023-02-09T20:21:18.416Z,31.53
2023-02-09T20:23:46.906Z,25.30
2023-02-09T20:26:17.599Z,27.00
2023-02-09T20:28:45.940Z,26.07
2023-02-09T20:31:15.056Z,27.53
2023-02-09T20:33:45.176Z,28.63
2023-02-09T20:36:13.174Z,28.23
2023-02-09T20:38:41.095Z,26.30
2023-02-09T20:41:10.707Z,26.10
2023-02-09T20:43:56.156Z,29.03
2023-02-09T20:46:55.468Z,29.60
2023-02-09T20:49:31.152Z,29.47
2023-02-09T20:51:59.528Z,28.93
2023-02-09T20:54:27.599Z,31.27
2023-02-09T20:56:55.443Z,28.53
2023-02-09T20:59:23.365Z,34.60
2023-02-09T21:01:52.272Z,28.00
2023-02-09T21:04:20.172Z,32.90
2023-02-09T21:06:49.736Z,31.13
2023-02-09T21:09:19.095Z,31.43
2023-02-09T21:11:47.127Z,31.53
2023-02-09T21:14:22.158Z,31.27
2023-02-09T21:16:56.274Z,30.00
2023-02-09T21:19:24.983Z,33.40
2023-02-09T21:21:54.184Z,30.43
2023-02-09T21:24:22.170Z,30.27
2023-02-09T21:26:50.132Z,32.30
2023-02-09T21:29:18.217Z,31.87
2023-02-09T21:31:46.524Z,32.27
2023-02-09T21:34:15.757Z,31.87
2023-02-09T21:36:44.186Z,31.20
2023-02-09T21:39:14.078Z,32.00
2023-02-09T21:41:59.091Z,31.63
2023-02-09T21:44:26.993Z,31.50
2023-02-09T21:46:54.932Z,33.03
2023-02-09T21:49:23.146Z,33.20
2023-02-09T21:51:51.025Z,33.67
2023-02-09T21:54:20.250Z,34.37
2023-02-09T21:56:48.164Z,30.93
2023-02-09T21:59:15.947Z,32.87
2023-02-09T22:01:43.809Z,30.93
2023-02-09T22:04:11.726Z,30.40
2023-02-09T22:06:41.616Z,33.17
2023-02-09T22:09:09.779Z,37.63
2023-02-09T22:11:38.984Z,32.57
2023-02-09T22:14:06.776Z,32.37
2023-02-09T22:16:34.873Z,35.60
2023-02-09T22:19:02.800Z,36.57
2023-02-09T22:21:30.665Z,39.30
2023-02-09T22:23:58.576Z,36.90
2023-02-09T22:26:26.468Z,36.67
2023-02-09T22:28:55.745Z,41.07
2023-02-09T22:31:23.757Z,43.47
2023-02-09T22:33:54.876Z,39.67
2023-02-09T22:36:23.355Z,42.70
2023-02-09T22:38:51.693Z,41.57
2023-02-09T22:41:24.232Z,44.47
2023-02-09T22:43:54.024Z,43.43
2023-02-09T22:46:25.179Z,46.27
2023-02-09T22:48:53.640Z,42.83
2023-02-09T22:51:22.103Z,47.93
2023-02-09T22:53:49.936Z,49.23
2023-02-09T22:56:18.433Z,44.40
2023-02-09T22:58:46.190Z,51.13
2023-02-09T23:01:14.458Z,44.87
2023-02-09T23:03:43.672Z,47.53
2023-02-09T23:06:14.116Z,44.40
2023-02-09T23:08:41.951Z,50.17
2023-02-09T23:11:13.487Z,46.67
2023-02-09T23:13:42.006Z,46.50
2023-02-09T23:16:12.396Z,48.27
2023-02-09T23:18:41.058Z,43.47
2023-02-09T23:21:10.266Z,48.90
2023-02-09T23:23:38.039Z,52.30
2023-02-09T23:26:05.827Z,43.90
2023-02-09T23:28:33.793Z,48.03
2023-02-09T23:31:05.534Z,45.10
2023-02-09T23:33:34.635Z,49.33
2023-02-09T23:36:04.870Z,47.57
2023-02-09T23:38:34.058Z,43.90
2023-02-09T23:41:06.709Z,43.20
2023-02-09T23:43:34.869Z,48.73
2023-02-09T23:46:03.012Z,45.07
2023-02-09T23:48:31.268Z,47.10
2023-02-09T23:51:00.630Z,49.10
2023-02-09T23:53:28.604Z,44.20
2023-02-09T23:56:03.556Z,40.60
2023-02-09T23:58:32.231Z,44.77
